N51CP KASE-KBFF
Flight info
| Callsign | N51CP |
|---|---|
| Flight time | 0h 51m |
| Altitude | 29000 |
| Route | LINDZ1 LINDZ SXW JESIE ALBIN |
| Aircraft | TBM9/L-SDFGRWY/S |
Departure
| Time | 2026-05-04 14:25 |
|---|---|
| Airport | Aspen-Pitkin County Airport (Sardy Field) (KASE) |
Arrival
| Time | 2026-05-04 15:17 |
|---|---|
| Airport | Western Neb. Rgnl/William B. Heilig Airport (KBFF) |
| Time | Latitude | Longitude | Altitude | Speed | Heading |
|---|---|---|---|---|---|
| 2026-05-04 14:14 | 39.22302 | -106.86707 | 7751 ft | 0 kts | 152° |
| 2026-05-04 14:17 | 39.22299 | -106.86705 | 7751 ft | 4 kts | 166° |
| 2026-05-04 14:17 | 39.22233 | -106.86724 | 7755 ft | 13 kts | 164° |
| 2026-05-04 14:17 | 39.21992 | -106.86610 | 7774 ft | 20 kts | 159° |
| 2026-05-04 14:18 | 39.21880 | -106.86556 | 7785 ft | 15 kts | 158° |
| 2026-05-04 14:18 | 39.21744 | -106.86494 | 7798 ft | 4 kts | 159° |
| 2026-05-04 14:19 | 39.21657 | -106.86451 | 7807 ft | 10 kts | 159° |
| 2026-05-04 14:19 | 39.21584 | -106.86416 | 7812 ft | 12 kts | 159° |
| 2026-05-04 14:19 | 39.21497 | -106.86374 | 7817 ft | 16 kts | 158° |
| 2026-05-04 14:19 | 39.21384 | -106.86320 | 7826 ft | 16 kts | 159° |
| 2026-05-04 14:20 | 39.21286 | -106.86272 | 7832 ft | 14 kts | 161° |
| 2026-05-04 14:20 | 39.21212 | -106.86251 | 7836 ft | 0 kts | 197° |
| 2026-05-04 14:22 | 39.21186 | -106.86277 | 7837 ft | 11 kts | 249° |
| 2026-05-04 14:22 | 39.21190 | -106.86347 | 7835 ft | 0 kts | 340° |
| 2026-05-04 14:22 | 39.21190 | -106.86348 | 7828 ft | 0 kts | 339° |
| 2026-05-04 14:24 | 39.21335 | -106.86415 | 7828 ft | 48 kts | 341° |
| 2026-05-04 14:24 | 39.21804 | -106.86641 | 7793 ft | 95 kts | 340° |
| 2026-05-04 14:24 | 39.22544 | -106.86993 | 7797 ft | 131 kts | 339° |
| 2026-05-04 14:24 | 39.23498 | -106.87479 | 7826 ft | 163 kts | 340° |
| 2026-05-04 14:25 | 39.24598 | -106.87998 | 8128 ft | 167 kts | 342° |
| 2026-05-04 14:25 | 39.26849 | -106.88681 | 9100 ft | 168 kts | 330° |
| 2026-05-04 14:25 | 39.27546 | -106.89827 | 9445 ft | 167 kts | 284° |
| 2026-05-04 14:26 | 39.27811 | -106.91269 | 9854 ft | 164 kts | 281° |
| 2026-05-04 14:26 | 39.28081 | -106.92716 | 10256 ft | 165 kts | 281° |
| 2026-05-04 14:26 | 39.28350 | -106.94158 | 10688 ft | 166 kts | 282° |
| 2026-05-04 14:26 | 39.28615 | -106.95629 | 11095 ft | 168 kts | 281° |
| 2026-05-04 14:27 | 39.28876 | -106.97074 | 11521 ft | 166 kts | 282° |
| 2026-05-04 14:27 | 39.29153 | -106.98542 | 11907 ft | 169 kts | 281° |
| 2026-05-04 14:27 | 39.29428 | -107.00011 | 12344 ft | 169 kts | 282° |
| 2026-05-04 14:27 | 39.29698 | -107.01505 | 12744 ft | 172 kts | 281° |
| 2026-05-04 14:28 | 39.29886 | -107.02503 | 13025 ft | 172 kts | 287° |
| 2026-05-04 14:28 | 39.30516 | -107.03816 | 13485 ft | 175 kts | 311° |
| 2026-05-04 14:28 | 39.31347 | -107.04986 | 13874 ft | 176 kts | 309° |
| 2026-05-04 14:28 | 39.32172 | -107.06175 | 14237 ft | 179 kts | 309° |
| 2026-05-04 14:29 | 39.33847 | -107.08577 | 14986 ft | 180 kts | 309° |
| 2026-05-04 14:29 | 39.35528 | -107.10989 | 15803 ft | 183 kts | 309° |
| 2026-05-04 14:30 | 39.36385 | -107.12218 | 16219 ft | 184 kts | 309° |
| 2026-05-04 14:30 | 39.37249 | -107.13446 | 16663 ft | 185 kts | 312° |
| 2026-05-04 14:30 | 39.39636 | -107.14677 | 17526 ft | 195 kts | 358° |
| 2026-05-04 14:31 | 39.40976 | -107.14329 | 17961 ft | 199 kts | 22° |
| 2026-05-04 14:31 | 39.43437 | -107.12648 | 18748 ft | 202 kts | 26° |
| 2026-05-04 14:32 | 39.45937 | -107.10922 | 19523 ft | 205 kts | 26° |
| 2026-05-04 14:32 | 39.47196 | -107.10049 | 19926 ft | 206 kts | 26° |
| 2026-05-04 14:32 | 39.48467 | -107.09170 | 20301 ft | 207 kts | 26° |
| 2026-05-04 14:32 | 39.49745 | -107.08285 | 20672 ft | 208 kts | 26° |
| 2026-05-04 14:33 | 39.51013 | -107.07407 | 21036 ft | 210 kts | 26° |
| 2026-05-04 14:33 | 39.52310 | -107.06509 | 21413 ft | 211 kts | 26° |
| 2026-05-04 14:33 | 39.53598 | -107.05616 | 21778 ft | 212 kts | 25° |
| 2026-05-04 14:33 | 39.54913 | -107.04703 | 22150 ft | 213 kts | 25° |
| 2026-05-04 14:34 | 39.56229 | -107.03788 | 22500 ft | 215 kts | 25° |
| 2026-05-04 14:34 | 39.57535 | -107.02881 | 22871 ft | 216 kts | 24° |
| 2026-05-04 14:34 | 39.58875 | -107.01952 | 23235 ft | 218 kts | 24° |
| 2026-05-04 14:34 | 39.60220 | -107.01018 | 23611 ft | 219 kts | 24° |
| 2026-05-04 14:35 | 39.61562 | -107.00085 | 23909 ft | 221 kts | 24° |
| 2026-05-04 14:35 | 39.62936 | -106.99178 | 24208 ft | 220 kts | 15° |
| 2026-05-04 14:35 | 39.64383 | -106.98711 | 24511 ft | 217 kts | 5° |
| 2026-05-04 14:35 | 39.65873 | -106.98278 | 24802 ft | 221 kts | 7° |
| 2026-05-04 14:36 | 39.67386 | -106.97822 | 25083 ft | 223 kts | 6° |
| 2026-05-04 14:36 | 39.68886 | -106.97382 | 25404 ft | 223 kts | 6° |
| 2026-05-04 14:36 | 39.70404 | -106.96940 | 25727 ft | 224 kts | 5° |
| 2026-05-04 14:36 | 39.71936 | -106.96493 | 26053 ft | 225 kts | 5° |
| 2026-05-04 14:37 | 39.73469 | -106.96043 | 26379 ft | 226 kts | 4° |
| 2026-05-04 14:37 | 39.75003 | -106.95593 | 26703 ft | 227 kts | 4° |
| 2026-05-04 14:37 | 39.76546 | -106.95141 | 27052 ft | 227 kts | 4° |
| 2026-05-04 14:37 | 39.78074 | -106.94695 | 27388 ft | 228 kts | 3° |
| 2026-05-04 14:38 | 39.79641 | -106.94233 | 27724 ft | 229 kts | 3° |
| 2026-05-04 14:38 | 39.81187 | -106.93778 | 28054 ft | 230 kts | 2° |
| 2026-05-04 14:38 | 39.82762 | -106.93315 | 28378 ft | 231 kts | 2° |
| 2026-05-04 14:38 | 39.84335 | -106.92852 | 28726 ft | 232 kts | 2° |
| 2026-05-04 14:39 | 39.85899 | -106.92393 | 29023 ft | 235 kts | 1° |
| 2026-05-04 14:39 | 39.87544 | -106.91918 | 29023 ft | 249 kts | 2° |
| 2026-05-04 14:39 | 39.89281 | -106.91406 | 29020 ft | 262 kts | 5° |
| 2026-05-04 14:40 | 39.92979 | -106.90302 | 28980 ft | 284 kts | 6° |
| 2026-05-04 14:40 | 39.94943 | -106.89724 | 28967 ft | 293 kts | 6° |
| 2026-05-04 14:40 | 39.96965 | -106.89127 | 28952 ft | 300 kts | 6° |
| 2026-05-04 14:40 | 39.99016 | -106.88468 | 28943 ft | 309 kts | 12° |
| 2026-05-04 14:41 | 40.01005 | -106.87371 | 28939 ft | 320 kts | 22° |
| 2026-05-04 14:41 | 40.02897 | -106.85762 | 28940 ft | 329 kts | 34° |
| 2026-05-04 14:41 | 40.06022 | -106.81219 | 28928 ft | 342 kts | 50° |
| 2026-05-04 14:42 | 40.08931 | -106.76222 | 28922 ft | 348 kts | 50° |
| 2026-05-04 14:42 | 40.11863 | -106.71167 | 28915 ft | 353 kts | 50° |
| 2026-05-04 14:43 | 40.14837 | -106.66031 | 28912 ft | 353 kts | 50° |
| 2026-05-04 14:43 | 40.17793 | -106.60923 | 28903 ft | 353 kts | 50° |
| 2026-05-04 14:44 | 40.20766 | -106.55778 | 28901 ft | 354 kts | 51° |
| 2026-05-04 14:44 | 40.23716 | -106.50659 | 28901 ft | 354 kts | 51° |
| 2026-05-04 14:45 | 40.26691 | -106.45495 | 28894 ft | 353 kts | 51° |
| 2026-05-04 14:45 | 40.29635 | -106.40370 | 28892 ft | 354 kts | 51° |
| 2026-05-04 14:46 | 40.32602 | -106.35201 | 28892 ft | 353 kts | 51° |
| 2026-05-04 14:46 | 40.35539 | -106.30071 | 28885 ft | 353 kts | 51° |
| 2026-05-04 14:47 | 40.38487 | -106.24920 | 28877 ft | 353 kts | 51° |
| 2026-05-04 14:47 | 40.41415 | -106.19791 | 28888 ft | 353 kts | 51° |
| 2026-05-04 14:48 | 40.44380 | -106.14589 | 28882 ft | 356 kts | 51° |
| 2026-05-04 14:48 | 40.47346 | -106.09376 | 28878 ft | 358 kts | 51° |
| 2026-05-04 14:49 | 40.50325 | -106.04135 | 28872 ft | 357 kts | 51° |
| 2026-05-04 14:49 | 40.53281 | -105.98919 | 28872 ft | 357 kts | 51° |
| 2026-05-04 14:50 | 40.56246 | -105.93686 | 28873 ft | 357 kts | 51° |
| 2026-05-04 14:50 | 40.59211 | -105.88439 | 28837 ft | 357 kts | 51° |
| 2026-05-04 14:51 | 40.62183 | -105.83180 | 28839 ft | 357 kts | 51° |
| 2026-05-04 14:51 | 40.65125 | -105.77948 | 28814 ft | 357 kts | 51° |
| 2026-05-04 14:52 | 40.68098 | -105.72661 | 28807 ft | 357 kts | 51° |
| 2026-05-04 14:52 | 40.71052 | -105.67423 | 28809 ft | 357 kts | 50° |
| 2026-05-04 14:53 | 40.73983 | -105.62154 | 28787 ft | 357 kts | 49° |
| 2026-05-04 14:53 | 40.76932 | -105.56912 | 28786 ft | 358 kts | 49° |
| 2026-05-04 14:54 | 40.79888 | -105.51607 | 28784 ft | 358 kts | 49° |
| 2026-05-04 14:54 | 40.82829 | -105.46338 | 28755 ft | 357 kts | 49° |
| 2026-05-04 14:55 | 40.85783 | -105.41033 | 28752 ft | 358 kts | 49° |
| 2026-05-04 14:55 | 40.88717 | -105.35751 | 28743 ft | 357 kts | 49° |
| 2026-05-04 14:56 | 40.91646 | -105.30472 | 28741 ft | 357 kts | 49° |
| 2026-05-04 14:56 | 40.94589 | -105.25158 | 28754 ft | 358 kts | 49° |
| 2026-05-04 14:57 | 40.97534 | -105.19832 | 28769 ft | 357 kts | 49° |
| 2026-05-04 14:57 | 41.00450 | -105.14550 | 28749 ft | 356 kts | 49° |
| 2026-05-04 14:58 | 41.03358 | -105.09273 | 28754 ft | 356 kts | 49° |
| 2026-05-04 14:58 | 41.06281 | -105.03959 | 28749 ft | 356 kts | 49° |
| 2026-05-04 14:59 | 41.09186 | -104.98665 | 28879 ft | 356 kts | 49° |
| 2026-05-04 15:00 | 41.13558 | -104.90686 | 28916 ft | 355 kts | 49° |
| 2026-05-04 15:00 | 41.16462 | -104.85376 | 28914 ft | 355 kts | 49° |
| 2026-05-04 15:01 | 41.20804 | -104.77414 | 28402 ft | 358 kts | 50° |
| 2026-05-04 15:01 | 41.22272 | -104.74715 | 27930 ft | 358 kts | 50° |
| 2026-05-04 15:01 | 41.23710 | -104.72070 | 27454 ft | 357 kts | 50° |
| 2026-05-04 15:02 | 41.25166 | -104.69394 | 26980 ft | 356 kts | 50° |
| 2026-05-04 15:02 | 41.26611 | -104.66730 | 26484 ft | 354 kts | 50° |
| 2026-05-04 15:02 | 41.28057 | -104.64068 | 25996 ft | 354 kts | 50° |
| 2026-05-04 15:02 | 41.29504 | -104.61398 | 25510 ft | 354 kts | 50° |
| 2026-05-04 15:03 | 41.30929 | -104.58766 | 25032 ft | 354 kts | 50° |
| 2026-05-04 15:03 | 41.32369 | -104.56104 | 24548 ft | 354 kts | 50° |
| 2026-05-04 15:03 | 41.33805 | -104.53448 | 24069 ft | 354 kts | 50° |
| 2026-05-04 15:03 | 41.35245 | -104.50782 | 23583 ft | 354 kts | 50° |
| 2026-05-04 15:04 | 41.36681 | -104.48122 | 23055 ft | 354 kts | 50° |
| 2026-05-04 15:04 | 41.38123 | -104.45446 | 22559 ft | 354 kts | 50° |
| 2026-05-04 15:04 | 41.39541 | -104.42814 | 22091 ft | 354 kts | 51° |
| 2026-05-04 15:04 | 41.40977 | -104.40144 | 21623 ft | 354 kts | 51° |
| 2026-05-04 15:05 | 41.42418 | -104.37465 | 21156 ft | 354 kts | 51° |
| 2026-05-04 15:05 | 41.43854 | -104.34794 | 20687 ft | 354 kts | 50° |
| 2026-05-04 15:05 | 41.45288 | -104.32123 | 20215 ft | 355 kts | 51° |
| 2026-05-04 15:05 | 41.46637 | -104.29353 | 19754 ft | 358 kts | 59° |
| 2026-05-04 15:06 | 41.47549 | -104.26287 | 19291 ft | 361 kts | 69° |
| 2026-05-04 15:06 | 41.48348 | -104.23110 | 18805 ft | 360 kts | 68° |
| 2026-05-04 15:06 | 41.49162 | -104.19962 | 18332 ft | 358 kts | 68° |
| 2026-05-04 15:07 | 41.50746 | -104.13668 | 17343 ft | 353 kts | 69° |
| 2026-05-04 15:07 | 41.51520 | -104.10616 | 16884 ft | 350 kts | 68° |
| 2026-05-04 15:07 | 41.52300 | -104.07549 | 16423 ft | 347 kts | 69° |
| 2026-05-04 15:07 | 41.53069 | -104.04499 | 15966 ft | 344 kts | 69° |
| 2026-05-04 15:08 | 41.53832 | -104.01467 | 15511 ft | 342 kts | 69° |
| 2026-05-04 15:08 | 41.54581 | -103.98490 | 15066 ft | 340 kts | 69° |
| 2026-05-04 15:08 | 41.55334 | -103.95496 | 14625 ft | 338 kts | 69° |
| 2026-05-04 15:08 | 41.56071 | -103.92563 | 14179 ft | 336 kts | 69° |
| 2026-05-04 15:09 | 41.56812 | -103.89602 | 13736 ft | 334 kts | 69° |
| 2026-05-04 15:09 | 41.57551 | -103.86655 | 13271 ft | 331 kts | 69° |
| 2026-05-04 15:09 | 41.58270 | -103.83780 | 12841 ft | 328 kts | 69° |
| 2026-05-04 15:10 | 41.59704 | -103.78040 | 12010 ft | 321 kts | 70° |
| 2026-05-04 15:10 | 41.60401 | -103.75236 | 11711 ft | 315 kts | 70° |
| 2026-05-04 15:10 | 41.61774 | -103.69712 | 10914 ft | 312 kts | 70° |
| 2026-05-04 15:11 | 41.62450 | -103.66995 | 10506 ft | 311 kts | 70° |
| 2026-05-04 15:11 | 41.63132 | -103.64244 | 10103 ft | 309 kts | 71° |
| 2026-05-04 15:11 | 41.63810 | -103.61515 | 9702 ft | 307 kts | 71° |
| 2026-05-04 15:11 | 41.64473 | -103.58831 | 9280 ft | 305 kts | 71° |
| 2026-05-04 15:12 | 41.65136 | -103.56144 | 8879 ft | 302 kts | 71° |
| 2026-05-04 15:12 | 41.65796 | -103.53477 | 8481 ft | 301 kts | 71° |
| 2026-05-04 15:12 | 41.66443 | -103.50857 | 8092 ft | 300 kts | 71° |
| 2026-05-04 15:12 | 41.67273 | -103.48314 | 7680 ft | 297 kts | 56° |
| 2026-05-04 15:13 | 41.68638 | -103.46271 | 7361 ft | 292 kts | 40° |
| 2026-05-04 15:13 | 41.70359 | -103.44863 | 7045 ft | 288 kts | 22° |
| 2026-05-04 15:13 | 41.72263 | -103.44198 | 6735 ft | 285 kts | 6° |
| 2026-05-04 15:13 | 41.74231 | -103.44295 | 6492 ft | 282 kts | 350° |
| 2026-05-04 15:14 | 41.76074 | -103.45118 | 6278 ft | 277 kts | 333° |
| 2026-05-04 15:14 | 41.77639 | -103.46592 | 6069 ft | 274 kts | 317° |
| 2026-05-04 15:14 | 41.78991 | -103.48354 | 5888 ft | 260 kts | 314° |
| 2026-05-04 15:14 | 41.80217 | -103.50020 | 5669 ft | 246 kts | 316° |
| 2026-05-04 15:15 | 41.81422 | -103.51570 | 5386 ft | 234 kts | 315° |
| 2026-05-04 15:15 | 41.82569 | -103.53053 | 5108 ft | 222 kts | 316° |
| 2026-05-04 15:15 | 41.83623 | -103.54427 | 4846 ft | 200 kts | 316° |
| 2026-05-04 15:16 | 41.85271 | -103.56608 | 4371 ft | 125 kts | 315° |
| 2026-05-04 15:16 | 41.85664 | -103.57117 | 4247 ft | 113 kts | 314° |
| 2026-05-04 15:16 | 41.86745 | -103.58554 | 3980 ft | 98 kts | 314° |
| 2026-05-04 15:17 | 41.87154 | -103.59091 | 3959 ft | 49 kts | 316° |
| 2026-05-04 15:17 | 41.87291 | -103.59478 | 3956 ft | 17 kts | 240° |
| 2026-05-04 15:17 | 41.87202 | -103.59427 | 3957 ft | 16 kts | 134° |
| 2026-05-04 15:18 | 41.87113 | -103.59380 | 3957 ft | 16 kts | 213° |
| 2026-05-04 15:18 | 41.87075 | -103.59455 | 3957 ft | 3 kts | 327° |
| 2026-05-04 15:18 | 41.87087 | -103.59469 | 3957 ft | 0 kts | 334° |